NCAR-RAP Real-Time Weather Data

Output produced by METARs form (23 January 2018  15:38 UTC)
found at http://weather.rap.ucar.edu/surface/
 
RJEB 230700Z 11012KT 9999 -SHSN FEW030 BKN050 M03/M06 Q0998
RJEB 230600Z 11010KT 9999 FEW020 SCT030 BKN070 M03/M07 Q0999
RJEB 230500Z 11015KT 9999 -SHSN FEW020 SCT030 BKN040 M02/M08 Q0999
RJEB 230400Z 10013KT 9999 FEW030 BKN045 M02/M09 Q1000
RJEB 230300Z 12008KT 9999 FEW040 BKN050 BKN/// M03/M12 Q1002
RJEB 230200Z 11008KT 9999 FEW030 SCT150 BKN/// M04/M13 Q1004
RJEB 230100Z 12009KT 9999 FEW030 BKN/// M05/M14 Q1006
RJEB 230000Z 13007KT 9999 FEW040 SCT/// M07/M14 Q1008
RJEB 220700Z 24006KT 9999 FEW030 SCT040 M06/M15 Q1016
RJEB 220600Z 25008KT 220V280 9999 FEW030 SCT040 M05/M14 Q1016
RJEB 220500Z 24011KT 210V280 9999 FEW035 BKN045 M05/M14 Q1016
RJEB 220400Z 25009KT 9999 FEW040 BKN050 M05/M14 Q1016
RJEB 220300Z VRB03KT 9999 FEW040 BKN060 M06/M13 Q1016
RJEB 220200Z 26008KT 220V300 9999 -SHSN FEW040 BKN050 M05/M14 Q1016
RJEB 220100Z VRB03KT 9999 -SHSN FEW011 BKN040 M08/M13 Q1016
RJEB 220000Z 15004KT 9999 -SHSN FEW010 BKN050 M10/M15 Q1017
RJEB 210700Z 28011KT 9999 -SHSN FEW006 SCT030 M08/M13 Q1008
RJEB 210600Z 27013KT 2400 -SHSN FEW004 SCT005 BKN020 M08/M11 Q1008
RJEB 210534Z 27011KT 2300 -SHSN FEW003 SCT004 BKN020 M07/M11 Q1007 RMK 1ST003 4ST004 7CU020 A2976
RJEB 210529Z 27011KT 3100 -SHSN FEW004 SCT005 BKN020 M07/M11 Q1007 RMK 1ST004 3ST005 6CU020 A2976
RJEB 210500Z 26013KT 3200 -SHSN FEW004 SCT020 BKN030 M07/M11 Q1007
RJEB 210443Z 26013KT 1400 R32/0750VP2000D -SHSN FEW003 BKN004 BKN012 M07/M10 Q1007 RMK 1ST003 5ST004 6ST012 A2976 5000NE
RJEB 210441Z 26012KT 1400 R32/0900VP2000D -SHSN FEW003 BKN004 BKN012 M07/M10 Q1007 RMK 1ST003 5ST004 6ST012 A2976 5000NE
RJEB 210439Z 26012KT 1500 R32/0900VP2000D -SHSN FEW003 BKN004 BKN012 M07/M10 Q1007 RMK 1ST003 5ST004 6ST012 A2976 5000NE
RJEB 210436Z 26012KT 2300 R32/1600VP2000N -SHSN FEW003 SCT004 BKN012 M07/M10 Q1007 RMK 1ST003 4ST004 6ST012 A2976
RJEB 210431Z 27014G24KT 2400 R32/1300VP2000U -SHSN FEW003 SCT004 BKN020 M07/M10 Q1007 RMK 1ST003 3ST004 6CU020 A2976 9999N-E
RJEB 210428Z 27016KT 1600 R32/1000VP2000U -SHSN FEW002 SCT003 BKN012 M07/M10 Q1007 RMK 1ST002 4ST003 6ST012 A2975 9999N-NE
RJEB 210425Z 27018KT 1500 R32/0800VP2000U -SHSN FEW002 SCT003 BKN012 M07/M10 Q1007 RMK 1ST002 4ST003 6ST012 A2975 5000W
RJEB 210422Z 27019G29KT 1000 R32/0700V1300U -SHSN FEW002 BKN003 BKN012 M07/M10 Q1007 RMK 1ST002 5ST003 6ST012 A2975
RJEB 210420Z 27020KT 0900 R32/0700V1700N SHSN VV002 M07/M10 Q1007 RMK A2975
RJEB 210417Z 27019G29KT 0800 R32/0700V1900D SHSN VV002 M07/M10 Q1007 RMK A2975
RJEB 210416Z 27020KT 0800 R32/0700V1900D SHSN VV002 M07/M10 Q1007 RMK A2975
RJEB 210413Z 27019KT 0900 R32/0700V1900U SHSN VV003 M07/M11 Q1007 RMK A2975
RJEB 210412Z 27019KT 1100 R32/0800V1900U -SHSN VV003 M07/M10 Q1007 RMK A2975
RJEB 210404Z 27018KT 1400 R32/0900V1900U -SHSN FEW003 BKN004 BKN012 M06/M11 Q1007 RMK 1ST003 5ST004 6ST012 A2975
RJEB 210400Z 27017KT 1500 R32/0900V1800D -SHSN FEW003 SCT004 BKN012 M06/M11 Q1007
RJEB 210344Z 26015KT 1500 R32/0800VP2000N -SHSN FEW003 BKN004 BKN012 M06/M11 Q1007 RMK 1ST003 5ST004 6ST012 A2975 9999NE
RJEB 210339Z 26014G24KT 210V290 2300 R32/0800VP2000D -SHSN FEW003 SCT004 BKN020 M06/M11 Q1007 RMK 1ST003 4ST004 6CU020 A2975 9999N-NE